createdAt,value
2022-08-01T00:03:33.319Z,63.93
2022-08-01T00:06:00.462Z,64.30
2022-08-01T00:08:27.391Z,64.41
2022-08-01T00:10:54.241Z,63.74
2022-08-01T00:13:34.410Z,64.47
2022-08-01T00:16:01.991Z,63.82
2022-08-01T00:18:29.023Z,63.12
2022-08-01T00:20:56.095Z,63.23
2022-08-01T00:23:23.151Z,63.32
2022-08-01T00:25:50.152Z,62.50
2022-08-01T00:28:17.710Z,61.93
2022-08-01T00:30:44.682Z,61.58
2022-08-01T00:33:11.833Z,61.01
2022-08-01T00:35:38.834Z,60.77
2022-08-01T00:38:05.732Z,60.71
2022-08-01T00:40:32.810Z,60.34
2022-08-01T00:42:59.814Z,60.25
2022-08-01T00:45:27.344Z,59.94
2022-08-01T00:47:55.195Z,60.05
2022-08-01T00:50:22.703Z,60.28
2022-08-01T00:52:52.504Z,60.02
2022-08-01T00:55:21.500Z,59.95
2022-08-01T00:58:05.036Z,60.18
2022-08-01T01:00:53.867Z,60.25
2022-08-01T01:03:49.377Z,61.61
2022-08-01T01:06:28.124Z,62.58
2022-08-01T01:09:06.583Z,62.37
2022-08-01T01:11:45.431Z,63.62
2022-08-01T01:14:22.570Z,63.56
2022-08-01T01:16:51.210Z,63.81
2022-08-01T01:19:24.710Z,64.61
2022-08-01T01:22:20.992Z,65.19
2022-08-01T01:25:06.963Z,65.19
2022-08-01T01:28:01.682Z,63.17
2022-08-01T01:30:31.123Z,64.51
2022-08-01T01:33:01.430Z,64.16
2022-08-01T01:35:32.990Z,64.17
2022-08-01T01:38:06.630Z,63.94
2022-08-01T01:40:34.667Z,64.54
2022-08-01T01:43:01.640Z,64.62
2022-08-01T01:45:30.730Z,64.77
2022-08-01T01:47:59.290Z,65.43
2022-08-01T01:50:28.563Z,66.04
2022-08-01T01:52:57.230Z,65.86
2022-08-01T01:55:25.343Z,66.40
2022-08-01T01:57:55.194Z,67.36
2022-08-01T02:00:24.945Z,67.40
2022-08-01T02:02:54.350Z,67.31
2022-08-01T02:05:22.302Z,67.78
2022-08-01T02:07:50.936Z,68.04
2022-08-01T02:10:19.541Z,68.43
2022-08-01T02:12:48.651Z,69.21
2022-08-01T02:15:16.864Z,69.31
2022-08-01T02:17:48.487Z,69.36
2022-08-01T02:20:15.712Z,68.97
2022-08-01T02:22:53.554Z,69.05
2022-08-01T02:25:32.831Z,68.64
2022-08-01T02:28:04.964Z,68.04
2022-08-01T02:30:36.353Z,66.90
2022-08-01T02:33:15.428Z,66.53
2022-08-01T02:36:30.375Z,66.72
2022-08-01T02:38:36.311Z,66.92
2022-08-01T02:41:10.632Z,67.27
2022-08-01T02:43:53.067Z,67.41
2022-08-01T02:46:27.092Z,67.61
2022-08-01T02:48:56.854Z,67.06
2022-08-01T02:51:25.311Z,68.09
2022-08-01T02:53:54.952Z,67.97
2022-08-01T02:56:24.252Z,68.22
2022-08-01T02:58:52.311Z,68.07
2022-08-01T03:01:22.358Z,67.26
2022-08-01T03:03:49.664Z,67.43
2022-08-01T03:06:18.405Z,67.43
2022-08-01T03:08:47.522Z,67.04
2022-08-01T03:11:16.282Z,66.75
2022-08-01T03:13:46.491Z,66.27
2022-08-01T03:16:14.688Z,65.88
2022-08-01T03:18:46.050Z,65.54
2022-08-01T03:21:15.425Z,66.27
2022-08-01T03:23:44.004Z,66.69
2022-08-01T03:26:12.094Z,65.93
2022-08-01T03:28:40.512Z,66.82
2022-08-01T03:31:07.634Z,66.85
2022-08-01T03:33:34.963Z,66.76
2022-08-01T03:36:04.923Z,66.70
2022-08-01T03:38:35.313Z,66.60
2022-08-01T03:41:21.841Z,67.18
2022-08-01T03:43:56.242Z,67.63
2022-08-01T03:46:34.563Z,66.88
2022-08-01T03:49:05.416Z,66.35
2022-08-01T03:51:33.902Z,66.33
2022-08-01T03:54:02.312Z,65.70
2022-08-01T03:56:33.065Z,65.26
2022-08-01T03:59:02.334Z,64.53
2022-08-01T04:01:31.089Z,64.38
2022-08-01T04:04:00.504Z,63.91
2022-08-01T04:06:27.742Z,63.54
2022-08-01T04:08:58.442Z,63.17
2022-08-01T04:11:28.403Z,62.75
2022-08-01T04:13:56.942Z,62.73
2022-08-01T04:16:25.034Z,62.50
2022-08-01T04:18:52.382Z,61.42
2022-08-01T04:21:24.156Z,59.64
2022-08-01T04:23:54.012Z,59.22
2022-08-01T04:26:23.172Z,58.64
2022-08-01T04:28:52.722Z,58.18
2022-08-01T04:31:20.625Z,57.37
2022-08-01T04:33:50.954Z,57.70
2022-08-01T04:36:24.075Z,56.94
2022-08-01T04:38:57.139Z,56.99
2022-08-01T04:41:25.254Z,57.82
2022-08-01T04:43:53.348Z,58.07
2022-08-01T04:46:20.843Z,56.41
2022-08-01T04:48:48.602Z,55.10
2022-08-01T04:51:17.304Z,54.82
2022-08-01T04:53:49.634Z,54.18
2022-08-01T04:56:16.516Z,54.45
2022-08-01T04:58:44.774Z,53.51
2022-08-01T05:01:12.434Z,54.32
2022-08-01T05:03:39.825Z,54.13
2022-08-01T05:06:07.225Z,52.53
2022-08-01T05:08:34.275Z,50.97
2022-08-01T05:11:02.424Z,50.11
2022-08-01T05:13:29.448Z,50.05
2022-08-01T05:15:56.656Z,49.75
2022-08-01T05:18:27.981Z,48.36
2022-08-01T05:20:56.293Z,49.74
2022-08-01T05:23:36.540Z,49.88
2022-08-01T05:26:10.708Z,48.99
2022-08-01T05:28:37.624Z,47.78
2022-08-01T05:31:04.954Z,48.46
2022-08-01T05:33:32.144Z,48.01
2022-08-01T05:35:59.182Z,47.77
2022-08-01T05:38:26.235Z,46.57
2022-08-01T05:40:53.223Z,45.93
2022-08-01T05:43:20.463Z,45.42
2022-08-01T05:45:48.363Z,45.36
2022-08-01T05:48:15.452Z,44.30
2022-08-01T05:50:42.484Z,43.55
2022-08-01T05:53:09.575Z,42.67
2022-08-01T05:55:36.832Z,42.80
2022-08-01T05:58:04.123Z,42.76
2022-08-01T06:00:31.152Z,42.54
2022-08-01T06:02:58.150Z,42.43
2022-08-01T06:05:25.072Z,41.97
2022-08-01T06:07:52.075Z,41.37
2022-08-01T06:10:19.535Z,40.94
2022-08-01T06:12:46.835Z,40.60
2022-08-01T06:15:13.892Z,40.63
2022-08-01T06:17:42.474Z,39.98
2022-08-01T06:20:10.225Z,39.60
2022-08-01T06:22:37.254Z,40.29
2022-08-01T06:25:05.658Z,38.69
2022-08-01T06:27:36.344Z,38.04
2022-08-01T06:30:05.152Z,37.66
2022-08-01T06:32:32.327Z,35.67
2022-08-01T06:34:59.384Z,35.27
2022-08-01T06:37:31.397Z,33.01
2022-08-01T06:40:16.318Z,31.39
2022-08-01T06:42:45.443Z,31.98
2022-08-01T06:45:13.768Z,32.40
2022-08-01T06:47:41.628Z,32.70
2022-08-01T06:50:11.283Z,31.40
2022-08-01T06:52:39.360Z,31.24
2022-08-01T06:55:06.913Z,30.84
2022-08-01T06:57:34.072Z,30.80
2022-08-01T07:00:12.630Z,30.85
2022-08-01T07:02:39.664Z,31.26
2022-08-01T07:05:06.839Z,31.33
2022-08-01T07:07:33.795Z,30.93
2022-08-01T07:10:00.663Z,29.81
2022-08-01T07:12:27.702Z,30.16
2022-08-01T07:14:54.622Z,30.05
2022-08-01T07:17:22.004Z,30.74
2022-08-01T07:19:49.382Z,30.87
2022-08-01T07:22:23.146Z,31.23
2022-08-01T07:24:54.370Z,31.42
2022-08-01T07:27:25.709Z,31.33
2022-08-01T07:29:53.779Z,30.46
2022-08-01T07:32:21.112Z,30.61
2022-08-01T07:34:48.085Z,30.88
2022-08-01T07:37:15.115Z,31.63
2022-08-01T07:39:42.002Z,30.76
2022-08-01T07:42:09.617Z,30.17
2022-08-01T07:44:37.831Z,30.23
2022-08-01T07:47:05.931Z,30.81
2022-08-01T07:49:36.251Z,30.76
2022-08-01T07:52:06.741Z,29.56
2022-08-01T07:54:34.676Z,30.83
2022-08-01T07:57:03.014Z,30.08
2022-08-01T07:59:30.004Z,30.13
2022-08-01T08:01:57.067Z,30.33
2022-08-01T08:04:24.113Z,29.76
2022-08-01T08:06:51.215Z,30.79
2022-08-01T08:09:18.262Z,30.02
2022-08-01T08:11:47.768Z,30.01
2022-08-01T08:14:16.245Z,29.92
2022-08-01T08:16:44.197Z,29.93
2022-08-01T08:19:11.892Z,29.68
2022-08-01T08:21:39.428Z,29.66
2022-08-01T08:24:26.961Z,29.96
2022-08-01T08:26:59.552Z,29.36
2022-08-01T08:29:28.361Z,29.12
2022-08-01T08:31:57.198Z,28.42
2022-08-01T08:34:25.223Z,28.37
2022-08-01T08:36:52.808Z,28.54
2022-08-01T08:39:20.829Z,28.37
2022-08-01T08:41:49.374Z,28.32
2022-08-01T08:44:18.112Z,28.39
2022-08-01T08:46:48.235Z,28.42
2022-08-01T08:49:21.211Z,27.97
2022-08-01T08:51:54.916Z,28.84
2022-08-01T08:54:31.394Z,28.07
2022-08-01T08:57:00.694Z,27.82
2022-08-01T08:59:29.497Z,27.44
2022-08-01T09:01:57.402Z,29.12
2022-08-01T09:04:27.058Z,27.53
2022-08-01T09:06:55.667Z,27.81
2022-08-01T09:09:23.896Z,28.21
2022-08-01T09:11:56.578Z,27.69
2022-08-01T09:14:27.411Z,27.79
2022-08-01T09:17:07.914Z,28.27
2022-08-01T09:19:48.871Z,27.45
2022-08-01T09:22:25.338Z,27.65
2022-08-01T09:25:10.802Z,28.83
2022-08-01T09:27:44.418Z,28.52
2022-08-01T09:30:23.960Z,28.26
2022-08-01T09:33:11.039Z,26.61
2022-08-01T09:35:46.513Z,28.62
2022-08-01T09:38:23.386Z,28.00
2022-08-01T09:40:58.237Z,28.14
2022-08-01T09:43:28.545Z,28.89
2022-08-01T09:45:58.963Z,27.75
2022-08-01T09:48:28.366Z,27.43
2022-08-01T09:51:04.423Z,26.80
2022-08-01T09:53:50.860Z,25.79
2022-08-01T09:56:20.437Z,26.76
2022-08-01T09:59:14.024Z,30.06
2022-08-01T10:01:49.992Z,28.76
2022-08-01T10:04:22.406Z,29.05
2022-08-01T10:06:55.311Z,28.46
2022-08-01T10:09:40.299Z,29.31
2022-08-01T10:12:09.161Z,28.14
2022-08-01T10:14:46.237Z,28.77
2022-08-01T10:17:18.534Z,28.53
2022-08-01T10:19:48.230Z,27.95
2022-08-01T10:22:17.836Z,27.50
2022-08-01T10:24:49.194Z,27.09
2022-08-01T10:27:21.623Z,27.92
2022-08-01T10:30:16.794Z,26.83
2022-08-01T10:32:56.314Z,27.41
2022-08-01T10:35:47.255Z,26.94
2022-08-01T10:38:13.838Z,26.96
2022-08-01T10:40:44.454Z,26.68
2022-08-01T10:43:12.616Z,27.36
2022-08-01T10:45:41.285Z,27.41
2022-08-01T10:48:20.918Z,26.87
2022-08-01T10:50:52.605Z,26.73
2022-08-01T10:53:31.297Z,27.58
2022-08-01T10:56:12.944Z,27.52
2022-08-01T10:58:44.113Z,28.39
2022-08-01T11:01:28.209Z,27.20
2022-08-01T11:04:03.143Z,27.93
2022-08-01T11:06:33.874Z,27.63
2022-08-01T11:09:37.226Z,27.29
2022-08-01T11:12:24.710Z,27.89
2022-08-01T11:15:03.410Z,27.82
2022-08-01T11:17:54.833Z,28.99
2022-08-01T11:20:31.647Z,28.89
2022-08-01T11:23:02.976Z,28.90
2022-08-01T11:26:06.468Z,28.60
2022-08-01T11:28:41.203Z,28.71
2022-08-01T11:31:17.723Z,29.07
2022-08-01T11:33:47.068Z,28.53
2022-08-01T11:36:15.434Z,29.04
2022-08-01T11:38:43.550Z,29.12
2022-08-01T11:41:37.074Z,28.92
2022-08-01T11:44:21.136Z,27.85
2022-08-01T11:47:00.602Z,28.09
2022-08-01T11:49:34.070Z,28.13
2022-08-01T11:52:36.641Z,28.33
2022-08-01T11:55:03.743Z,28.07
2022-08-01T11:57:38.949Z,27.65
2022-08-01T12:00:19.580Z,28.92
2022-08-01T12:02:51.568Z,28.34
2022-08-01T12:05:24.769Z,28.57
2022-08-01T12:07:53.624Z,28.25
2022-08-01T12:10:23.794Z,28.76
2022-08-01T12:12:59.355Z,29.11
2022-08-01T12:15:32.695Z,28.28
2022-08-01T12:18:06.064Z,28.51
2022-08-01T12:20:42.744Z,28.92
2022-08-01T12:23:28.021Z,28.08
2022-08-01T12:25:58.192Z,27.74
2022-08-01T12:28:26.270Z,27.59
2022-08-01T12:30:53.942Z,28.31
2022-08-01T12:33:24.164Z,27.88
2022-08-01T12:35:51.732Z,27.46
2022-08-01T12:38:24.272Z,27.53
2022-08-01T12:40:58.122Z,27.52
2022-08-01T12:43:29.563Z,28.83
2022-08-01T12:46:00.814Z,28.56
2022-08-01T12:48:31.293Z,27.72
2022-08-01T12:51:01.765Z,27.64
2022-08-01T12:53:40.257Z,28.85
2022-08-01T12:56:15.834Z,28.05
2022-08-01T12:59:02.555Z,28.66
2022-08-01T13:01:35.927Z,27.95
2022-08-01T13:04:10.716Z,28.26
2022-08-01T13:06:41.389Z,29.78
2022-08-01T13:09:18.285Z,28.62
2022-08-01T13:12:03.654Z,29.44
2022-08-01T13:14:41.658Z,28.46
2022-08-01T13:17:10.037Z,29.29
2022-08-01T13:20:02.977Z,28.12
2022-08-01T13:22:38.417Z,27.61
2022-08-01T13:25:20.834Z,28.30
2022-08-01T13:27:53.713Z,29.12
2022-08-01T13:30:23.276Z,29.29
2022-08-01T13:33:01.687Z,29.84
2022-08-01T13:35:29.036Z,29.42
2022-08-01T13:37:57.987Z,29.20
2022-08-01T13:40:29.307Z,28.86
2022-08-01T13:42:58.006Z,29.22
2022-08-01T13:45:26.554Z,29.06
2022-08-01T13:48:03.889Z,29.34
2022-08-01T13:50:53.369Z,29.31
2022-08-01T13:53:40.760Z,29.91
2022-08-01T13:56:19.126Z,29.66
2022-08-01T13:58:47.989Z,29.29
2022-08-01T14:01:19.933Z,29.04
2022-08-01T14:03:49.356Z,29.17
2022-08-01T14:06:22.620Z,29.58
2022-08-01T14:08:51.558Z,29.58
2022-08-01T14:11:21.445Z,29.62
2022-08-01T14:13:51.114Z,29.17
2022-08-01T14:16:18.736Z,29.30
2022-08-01T14:18:47.726Z,29.61
2022-08-01T14:21:16.529Z,29.00
2022-08-01T14:23:47.308Z,29.72
2022-08-01T14:26:14.956Z,29.95
2022-08-01T14:28:52.107Z,29.67
2022-08-01T14:31:22.357Z,29.36
2022-08-01T14:34:06.975Z,29.39
2022-08-01T14:36:46.336Z,29.05
2022-08-01T14:39:15.746Z,30.32
2022-08-01T14:41:42.706Z,29.78
2022-08-01T14:44:10.136Z,30.17
2022-08-01T14:46:37.298Z,29.67
2022-08-01T14:49:18.326Z,29.61
2022-08-01T14:51:45.330Z,29.62
2022-08-01T14:54:15.197Z,30.62
2022-08-01T14:56:42.450Z,29.96
2022-08-01T14:59:21.121Z,30.16
2022-08-01T15:01:48.767Z,30.25
2022-08-01T15:04:15.887Z,31.27
2022-08-01T15:06:42.911Z,30.92
2022-08-01T15:09:09.787Z,30.88
2022-08-01T15:11:36.738Z,31.53
2022-08-01T15:14:22.989Z,30.76
2022-08-01T15:16:49.927Z,30.45
2022-08-01T15:19:17.728Z,30.59
2022-08-01T15:21:44.717Z,30.06
2022-08-01T15:24:11.708Z,31.07
2022-08-01T15:26:38.609Z,30.41
2022-08-01T15:29:05.528Z,30.17
2022-08-01T15:31:36.489Z,31.32
2022-08-01T15:34:06.487Z,30.75
2022-08-01T15:36:34.075Z,30.27
2022-08-01T15:39:02.600Z,30.49
2022-08-01T15:41:30.185Z,30.60
2022-08-01T15:43:58.219Z,31.19
2022-08-01T15:46:26.498Z,31.13
2022-08-01T15:48:53.931Z,31.25
2022-08-01T15:51:21.523Z,31.35
2022-08-01T15:53:48.895Z,31.39
2022-08-01T15:56:16.346Z,31.40
2022-08-01T15:58:43.489Z,31.78
2022-08-01T16:01:11.186Z,31.56
2022-08-01T16:03:41.734Z,31.61
2022-08-01T16:06:09.793Z,31.22
2022-08-01T16:08:39.284Z,31.50
2022-08-01T16:11:07.506Z,31.24
2022-08-01T16:13:34.390Z,31.48
2022-08-01T16:16:03.064Z,31.27
2022-08-01T16:18:29.983Z,31.16
2022-08-01T16:20:59.075Z,31.21
2022-08-01T16:23:26.224Z,31.38
2022-08-01T16:25:53.627Z,31.39
2022-08-01T16:28:21.715Z,32.72
2022-08-01T16:31:01.351Z,32.30
2022-08-01T16:33:45.582Z,32.27
2022-08-01T16:36:24.727Z,32.18
2022-08-01T16:38:51.956Z,32.46
2022-08-01T16:41:20.294Z,32.15
2022-08-01T16:43:53.998Z,32.43
2022-08-01T16:46:24.606Z,33.50
2022-08-01T16:48:51.779Z,33.51
2022-08-01T16:51:18.931Z,33.84
2022-08-01T16:53:46.216Z,33.47
2022-08-01T16:56:13.275Z,33.22
2022-08-01T16:58:40.363Z,33.29
2022-08-01T17:02:00.837Z,33.16
2022-08-01T17:03:59.422Z,33.74
2022-08-01T17:06:29.609Z,33.79
2022-08-01T17:08:59.740Z,34.08
2022-08-01T17:11:26.980Z,34.52
2022-08-01T17:13:53.858Z,34.23
2022-08-01T17:16:21.005Z,35.35
2022-08-01T17:18:48.145Z,35.32
2022-08-01T17:21:15.485Z,35.56
2022-08-01T17:23:42.651Z,35.98
2022-08-01T17:26:09.867Z,36.31
2022-08-01T17:28:36.971Z,37.03
2022-08-01T17:31:07.428Z,37.29
2022-08-01T17:33:46.201Z,37.84
2022-08-01T17:36:15.228Z,38.47
2022-08-01T17:38:42.445Z,39.43
2022-08-01T17:41:10.920Z,39.74
2022-08-01T17:43:38.098Z,40.07
2022-08-01T17:46:05.187Z,40.85
2022-08-01T17:48:32.397Z,41.30
2022-08-01T17:50:59.535Z,41.79
2022-08-01T17:53:26.972Z,42.19
2022-08-01T17:55:59.135Z,42.78
2022-08-01T17:58:50.220Z,43.41
2022-08-01T18:01:17.096Z,44.04
2022-08-01T18:03:45.158Z,44.39
2022-08-01T18:06:23.134Z,44.50
2022-08-01T18:08:55.635Z,44.99
2022-08-01T18:11:27.231Z,45.51
2022-08-01T18:13:59.790Z,45.20
2022-08-01T18:16:27.636Z,45.53
2022-08-01T18:18:56.338Z,45.77
2022-08-01T18:21:24.035Z,46.25
2022-08-01T18:23:52.304Z,46.64
2022-08-01T18:26:21.496Z,46.82
2022-08-01T18:28:49.464Z,46.87
2022-08-01T18:31:18.066Z,47.17
2022-08-01T18:33:45.460Z,47.46
2022-08-01T18:36:32.141Z,47.72
2022-08-01T18:39:00.712Z,47.55
2022-08-01T18:41:28.871Z,48.21
2022-08-01T18:44:05.306Z,48.53
2022-08-01T18:46:38.942Z,48.95
2022-08-01T18:49:07.958Z,49.06
2022-08-01T18:51:40.215Z,49.47
2022-08-01T18:54:10.638Z,50.20
2022-08-01T18:56:37.951Z,50.54
2022-08-01T18:59:07.565Z,51.66
2022-08-01T19:01:34.819Z,51.81
2022-08-01T19:04:02.627Z,51.44
2022-08-01T19:06:29.681Z,51.39
2022-08-01T19:09:02.109Z,52.06
2022-08-01T19:11:31.321Z,51.76
2022-08-01T19:13:58.893Z,51.80
2022-08-01T19:16:27.613Z,51.76
2022-08-01T19:18:54.610Z,51.88
2022-08-01T19:21:22.911Z,52.07
2022-08-01T19:24:08.253Z,52.58
2022-08-01T19:26:36.460Z,52.37
2022-08-01T19:29:19.740Z,52.52
2022-08-01T19:31:49.331Z,52.69
2022-08-01T19:34:26.604Z,53.47
2022-08-01T19:36:56.998Z,53.79
2022-08-01T19:39:27.320Z,55.17
2022-08-01T19:41:56.270Z,54.96
2022-08-01T19:44:25.242Z,54.97
2022-08-01T19:46:53.545Z,54.41
2022-08-01T19:49:22.423Z,55.87
2022-08-01T19:52:00.001Z,56.92
2022-08-01T19:54:32.756Z,56.21
2022-08-01T19:57:02.175Z,55.93
2022-08-01T19:59:32.206Z,55.67
2022-08-01T20:01:59.969Z,55.53
2022-08-01T20:04:28.409Z,55.61
2022-08-01T20:06:55.869Z,55.96
2022-08-01T20:09:23.527Z,56.70
2022-08-01T20:11:54.689Z,57.69
2022-08-01T20:14:25.430Z,57.23
2022-08-01T20:16:54.852Z,57.46
2022-08-01T20:19:28.386Z,57.48
2022-08-01T20:22:06.427Z,58.52
2022-08-01T20:24:43.417Z,58.08
2022-08-01T20:27:11.647Z,58.42
2022-08-01T20:29:39.547Z,59.02
2022-08-01T20:32:08.178Z,59.63
2022-08-01T20:34:39.735Z,60.78
2022-08-01T20:37:12.790Z,60.03
2022-08-01T20:39:44.293Z,60.39
2022-08-01T20:42:13.579Z,60.34
2022-08-01T20:44:41.957Z,60.41
2022-08-01T20:47:09.835Z,59.47
2022-08-01T20:49:38.388Z,58.54
2022-08-01T20:52:11.748Z,58.26
2022-08-01T20:54:41.134Z,57.80
2022-08-01T20:57:25.554Z,57.73
2022-08-01T21:00:02.613Z,58.22
2022-08-01T21:03:11.684Z,58.69
2022-08-01T21:05:42.862Z,58.73
2022-08-01T21:08:50.325Z,60.69
2022-08-01T21:11:21.528Z,60.30
2022-08-01T21:13:51.195Z,59.24
2022-08-01T21:16:26.584Z,60.59
2022-08-01T21:19:18.421Z,60.10
2022-08-01T21:21:51.355Z,59.81
2022-08-01T21:24:23.365Z,60.49
2022-08-01T21:26:52.136Z,60.20
2022-08-01T21:29:22.544Z,60.38
2022-08-01T21:32:10.605Z,60.01
2022-08-01T21:34:39.676Z,61.48
2022-08-01T21:37:10.205Z,60.53
2022-08-01T21:39:38.570Z,60.37
2022-08-01T21:42:09.202Z,60.56
2022-08-01T21:44:39.952Z,61.57
2022-08-01T21:47:11.901Z,63.28
2022-08-01T21:49:40.621Z,61.83
2022-08-01T21:52:15.261Z,61.96
2022-08-01T21:55:00.364Z,61.53
2022-08-01T21:58:06.002Z,61.31
2022-08-01T22:00:39.332Z,61.69
2022-08-01T22:03:24.363Z,61.62
2022-08-01T22:05:54.284Z,60.97
2022-08-01T22:08:30.526Z,61.57
2022-08-01T22:11:00.810Z,61.42
2022-08-01T22:13:28.165Z,61.52
2022-08-01T22:15:57.417Z,61.76
2022-08-01T22:18:26.344Z,61.98
2022-08-01T22:20:53.982Z,62.37
2022-08-01T22:23:23.193Z,62.39
2022-08-01T22:25:54.788Z,62.08
2022-08-01T22:28:23.282Z,61.67
2022-08-01T22:30:52.136Z,62.45
2022-08-01T22:33:20.395Z,62.24
2022-08-01T22:35:52.924Z,63.57
2022-08-01T22:38:22.927Z,63.88
2022-08-01T22:40:59.036Z,64.42
2022-08-01T22:43:33.966Z,64.51
2022-08-01T22:46:11.283Z,65.68
2022-08-01T22:48:46.756Z,65.51
2022-08-01T22:51:56.047Z,65.34
2022-08-01T22:54:33.079Z,65.50
2022-08-01T22:57:07.091Z,64.34
2022-08-01T22:59:43.561Z,64.72
2022-08-01T23:02:16.288Z,64.69
2022-08-01T23:04:46.606Z,64.50
2022-08-01T23:07:19.041Z,64.46
2022-08-01T23:09:53.641Z,65.77
2022-08-01T23:12:25.802Z,66.18
2022-08-01T23:14:55.866Z,66.43
2022-08-01T23:17:27.580Z,66.16
2022-08-01T23:20:01.366Z,66.93
2022-08-01T23:22:31.671Z,66.44
2022-08-01T23:25:03.971Z,66.88
2022-08-01T23:27:54.110Z,66.95
2022-08-01T23:30:26.260Z,67.52
2022-08-01T23:32:57.835Z,67.85
2022-08-01T23:35:25.503Z,67.29
2022-08-01T23:37:53.210Z,66.97
2022-08-01T23:40:25.135Z,67.26
2022-08-01T23:42:56.037Z,67.45
2022-08-01T23:45:23.802Z,67.76
2022-08-01T23:47:52.280Z,68.13
2022-08-01T23:50:21.813Z,68.98
2022-08-01T23:52:53.224Z,69.31
2022-08-01T23:55:33.393Z,69.25
2022-08-01T23:58:06.952Z,70.05
